createdAt,value
2022-12-23T00:01:26.647Z,3.71
2022-12-23T00:03:56.804Z,3.67
2022-12-23T00:06:23.516Z,3.68
2022-12-23T00:08:50.099Z,3.67
2022-12-23T00:11:19.392Z,3.62
2022-12-23T00:14:05.288Z,3.60
2022-12-23T00:16:32.010Z,3.55
2022-12-23T00:18:58.645Z,3.57
2022-12-23T00:21:25.236Z,3.53
2022-12-23T00:23:51.909Z,3.62
2022-12-23T00:26:21.771Z,3.64
2022-12-23T00:28:49.639Z,3.64
2022-12-23T00:31:21.153Z,3.59
2022-12-23T00:33:49.215Z,3.59
2022-12-23T00:36:22.084Z,3.69
2022-12-23T00:39:07.214Z,3.71
2022-12-23T00:41:52.611Z,3.71
2022-12-23T00:44:19.840Z,3.73
2022-12-23T00:46:46.414Z,3.71
2022-12-23T00:49:33.246Z,3.68
2022-12-23T00:52:00.261Z,3.59
2022-12-23T00:54:27.205Z,3.63
2022-12-23T00:56:54.234Z,3.63
2022-12-23T00:59:21.158Z,3.66
2022-12-23T01:02:06.771Z,3.65
2022-12-23T01:04:52.322Z,3.63
2022-12-23T01:07:18.941Z,3.64
2022-12-23T01:09:45.811Z,3.64
2022-12-23T01:12:12.753Z,3.66
2022-12-23T01:14:39.847Z,3.69
2022-12-23T01:17:08.073Z,3.64
2022-12-23T01:19:35.135Z,3.70
2022-12-23T01:22:01.777Z,3.70
2022-12-23T01:24:30.225Z,3.70
2022-12-23T01:26:57.248Z,3.84
2022-12-23T01:29:24.270Z,3.74
2022-12-23T01:31:50.992Z,3.75
2022-12-23T01:34:17.963Z,3.81
2022-12-23T01:36:44.557Z,3.84
2022-12-23T01:39:11.168Z,3.88
2022-12-23T01:41:56.470Z,3.96
2022-12-23T01:44:53.728Z,4.17
2022-12-23T01:48:01.365Z,4.16
2022-12-23T01:50:39.331Z,4.13
2022-12-23T01:53:11.841Z,4.30
2022-12-23T01:56:07.555Z,4.40
2022-12-23T01:58:42.105Z,4.48
2022-12-23T02:01:28.043Z,4.49
2022-12-23T02:03:58.900Z,4.39
2022-12-23T02:06:47.026Z,4.30
2022-12-23T02:09:19.905Z,4.26
2022-12-23T02:12:05.252Z,4.24
2022-12-23T02:15:46.009Z,4.19
2022-12-23T02:19:05.289Z,4.19
2022-12-23T02:22:07.766Z,4.23
2022-12-23T02:25:17.621Z,4.25
2022-12-23T02:28:12.752Z,4.24
2022-12-23T02:30:48.414Z,4.23
2022-12-23T02:33:32.783Z,4.22
2022-12-23T02:36:30.579Z,4.17
2022-12-23T02:39:26.916Z,4.09
2022-12-23T02:42:25.308Z,4.01
2022-12-23T02:45:07.786Z,3.94
2022-12-23T02:47:50.088Z,3.91
2022-12-23T02:50:38.116Z,4.04
2022-12-23T02:53:13.381Z,4.03
2022-12-23T02:55:44.480Z,3.95
2022-12-23T02:58:15.052Z,3.91
2022-12-23T03:00:43.371Z,3.79
2022-12-23T03:03:10.724Z,3.75
2022-12-23T03:05:41.540Z,3.80
2022-12-23T03:08:14.805Z,3.80
2022-12-23T03:11:08.430Z,3.76
2022-12-23T03:14:27.276Z,3.83
2022-12-23T03:17:07.151Z,3.77
2022-12-23T03:19:43.761Z,3.86
2022-12-23T03:22:24.325Z,3.84
2022-12-23T03:25:21.916Z,3.81
2022-12-23T03:28:21.001Z,3.79
2022-12-23T03:30:53.924Z,3.85
2022-12-23T03:33:26.792Z,3.77
2022-12-23T03:35:59.800Z,3.78
2022-12-23T03:38:28.325Z,3.79
2022-12-23T03:41:00.774Z,3.76
2022-12-23T03:43:33.362Z,3.76
2022-12-23T03:46:03.312Z,3.78
2022-12-23T03:48:36.197Z,3.74
2022-12-23T03:51:11.508Z,3.72
2022-12-23T03:53:45.457Z,3.79
2022-12-23T03:56:18.886Z,3.78
2022-12-23T03:58:59.282Z,3.80
2022-12-23T04:02:02.362Z,3.91
2022-12-23T04:04:45.634Z,3.94
2022-12-23T04:07:27.656Z,3.97
2022-12-23T04:09:55.149Z,4.01
2022-12-23T04:12:23.925Z,3.98
2022-12-23T04:14:51.180Z,4.06
2022-12-23T04:17:18.752Z,4.06
2022-12-23T04:19:46.453Z,4.04
2022-12-23T04:22:13.898Z,4.05
2022-12-23T04:24:40.894Z,4.06
2022-12-23T04:27:08.239Z,4.05
2022-12-23T04:29:34.826Z,4.10
2022-12-23T04:32:01.388Z,4.05
2022-12-23T04:34:27.968Z,4.06
2022-12-23T04:36:54.507Z,4.10
2022-12-23T04:39:21.118Z,4.11
2022-12-23T04:41:48.373Z,4.20
2022-12-23T04:44:14.989Z,4.14
2022-12-23T04:46:41.688Z,3.98
2022-12-23T04:49:08.443Z,3.96
2022-12-23T04:51:35.033Z,3.95
2022-12-23T04:54:01.717Z,3.93
2022-12-23T04:56:28.304Z,3.92
2022-12-23T04:58:54.907Z,3.91
2022-12-23T05:01:21.600Z,3.87
2022-12-23T05:03:48.204Z,3.88
2022-12-23T05:06:14.790Z,3.86
2022-12-23T05:08:41.378Z,3.84
2022-12-23T05:11:08.209Z,3.97
2022-12-23T05:13:34.786Z,4.04
2022-12-23T05:16:01.407Z,4.00
2022-12-23T05:18:27.993Z,3.94
2022-12-23T05:20:54.552Z,3.90
2022-12-23T05:23:21.173Z,3.98
2022-12-23T05:25:55.547Z,3.96
2022-12-23T05:28:22.766Z,3.98
2022-12-23T05:30:49.456Z,4.03
2022-12-23T05:33:16.186Z,4.03
2022-12-23T05:35:42.803Z,4.02
2022-12-23T05:38:09.424Z,3.99
2022-12-23T05:40:36.035Z,4.04
2022-12-23T05:43:02.734Z,4.05
2022-12-23T05:45:29.322Z,4.13
2022-12-23T05:47:55.935Z,4.08
2022-12-23T05:50:22.506Z,4.04
2022-12-23T05:52:49.105Z,4.16
2022-12-23T05:55:15.848Z,4.15
2022-12-23T05:57:42.427Z,4.16
2022-12-23T06:00:09.975Z,4.16
2022-12-23T06:02:36.703Z,4.09
2022-12-23T06:05:03.705Z,4.15
2022-12-23T06:07:30.289Z,4.08
2022-12-23T06:09:56.880Z,4.10
2022-12-23T06:12:23.409Z,4.11
2022-12-23T06:14:49.989Z,4.10
2022-12-23T06:17:16.572Z,4.20
2022-12-23T06:19:43.358Z,4.28
2022-12-23T06:22:10.008Z,4.23
2022-12-23T06:24:36.558Z,4.26
2022-12-23T06:27:03.147Z,4.21
2022-12-23T06:29:29.793Z,4.18
2022-12-23T06:31:56.474Z,4.14
2022-12-23T06:34:23.081Z,4.14
2022-12-23T06:36:49.739Z,4.14
2022-12-23T06:39:16.418Z,4.10
2022-12-23T06:41:43.003Z,4.08
2022-12-23T06:44:10.126Z,4.15
2022-12-23T06:46:36.757Z,4.13
2022-12-23T06:49:09.075Z,4.07
2022-12-23T06:51:42.190Z,4.08
2022-12-23T06:54:11.305Z,4.08
2022-12-23T06:56:38.130Z,4.15
2022-12-23T06:59:04.802Z,4.14
2022-12-23T07:01:31.493Z,4.12
2022-12-23T07:03:58.104Z,4.10
2022-12-23T07:06:24.678Z,4.11
2022-12-23T07:08:51.293Z,4.15
2022-12-23T07:11:17.841Z,4.19
2022-12-23T07:13:46.373Z,4.15
2022-12-23T07:16:13.260Z,4.22
2022-12-23T07:18:40.084Z,4.24
2022-12-23T07:21:13.378Z,4.26
2022-12-23T07:23:44.601Z,4.28
2022-12-23T07:26:11.181Z,4.32
2022-12-23T07:28:38.312Z,4.35
2022-12-23T07:31:08.045Z,4.39
2022-12-23T07:33:34.661Z,4.40
2022-12-23T07:36:01.192Z,4.41
2022-12-23T07:38:29.594Z,4.41
2022-12-23T07:40:56.135Z,4.43
2022-12-23T07:43:22.735Z,4.52
2022-12-23T07:45:53.955Z,4.52
2022-12-23T07:48:24.248Z,4.48
2022-12-23T07:50:51.367Z,4.48
2022-12-23T07:53:18.626Z,4.47
2022-12-23T07:55:45.233Z,4.62
2022-12-23T07:58:11.769Z,4.55
2022-12-23T08:00:38.347Z,4.56
2022-12-23T08:03:05.080Z,4.59
2022-12-23T08:05:31.824Z,4.64
2022-12-23T08:07:58.429Z,4.66
2022-12-23T08:10:25.070Z,4.74
2022-12-23T08:12:51.669Z,4.71
2022-12-23T08:15:18.239Z,4.73
2022-12-23T08:17:44.840Z,4.79
2022-12-23T08:20:11.666Z,4.91
2022-12-23T08:22:38.474Z,4.98
2022-12-23T08:25:06.728Z,5.04
2022-12-23T08:27:33.360Z,5.11
2022-12-23T08:29:59.951Z,5.15
2022-12-23T08:32:27.560Z,5.19
2022-12-23T08:34:57.526Z,5.28
2022-12-23T08:37:24.424Z,5.27
2022-12-23T08:39:51.081Z,5.28
2022-12-23T08:42:17.664Z,5.30
2022-12-23T08:44:44.243Z,5.29
2022-12-23T08:47:10.839Z,5.28
2022-12-23T08:49:37.420Z,5.31
2022-12-23T08:52:04.125Z,5.34
2022-12-23T08:54:30.729Z,5.34
2022-12-23T08:56:57.321Z,5.38
2022-12-23T08:59:23.931Z,5.44
2022-12-23T09:01:50.691Z,5.55
2022-12-23T09:04:17.357Z,5.60
2022-12-23T09:06:44.190Z,5.68
2022-12-23T09:09:12.977Z,5.86
2022-12-23T09:11:39.826Z,5.93
2022-12-23T09:14:08.488Z,6.00
2022-12-23T09:16:35.383Z,6.07
2022-12-23T09:19:02.048Z,6.13
2022-12-23T09:21:29.395Z,6.16
2022-12-23T09:23:55.996Z,6.23
2022-12-23T09:26:28.739Z,6.31
2022-12-23T09:28:56.313Z,6.35
2022-12-23T09:31:24.070Z,6.40
2022-12-23T09:33:52.833Z,6.49
2022-12-23T09:36:20.057Z,6.57
2022-12-23T09:38:46.806Z,6.67
2022-12-23T09:41:48.947Z,6.79
2022-12-23T09:44:44.573Z,6.91
2022-12-23T09:47:16.464Z,7.14
2022-12-23T09:49:48.936Z,7.37
2022-12-23T09:52:22.968Z,7.36
2022-12-23T09:54:53.911Z,7.66
2022-12-23T09:57:51.996Z,7.80
2022-12-23T10:00:20.186Z,7.92
2022-12-23T10:03:45.516Z,8.14
2022-12-23T10:06:22.529Z,8.11
2022-12-23T10:08:53.014Z,8.18
2022-12-23T10:11:29.835Z,8.47
2022-12-23T10:14:36.265Z,8.54
2022-12-23T10:17:12.830Z,8.44
2022-12-23T10:19:46.030Z,8.56
2022-12-23T10:22:45.683Z,8.53
2022-12-23T10:25:28.561Z,8.53
2022-12-23T10:27:55.345Z,8.44
2022-12-23T10:33:23.436Z,8.53
2022-12-23T10:36:09.679Z,8.58
2022-12-23T10:39:20.505Z,8.71
2022-12-23T10:41:52.752Z,8.71
2022-12-23T10:45:01.554Z,8.67
2022-12-23T10:51:13.108Z,8.53
2022-12-23T10:54:05.556Z,8.67
2022-12-23T10:56:32.624Z,8.75
2022-12-23T10:59:00.715Z,8.66
2022-12-23T11:01:30.393Z,8.56
2022-12-23T11:04:13.330Z,8.40
2022-12-23T11:06:42.460Z,8.41
2022-12-23T11:09:17.368Z,8.37
2022-12-23T11:11:54.154Z,8.44
2022-12-23T11:14:34.471Z,8.65
2022-12-23T11:17:01.381Z,8.67
2022-12-23T11:19:28.232Z,8.84
2022-12-23T11:22:01.493Z,8.97
2022-12-23T11:24:38.078Z,9.05
2022-12-23T11:27:11.809Z,9.19
2022-12-23T11:29:48.068Z,9.27
2022-12-23T11:32:34.982Z,9.33
2022-12-23T11:35:01.578Z,9.42
2022-12-23T11:37:36.977Z,9.34
2022-12-23T11:40:06.582Z,9.33
2022-12-23T11:42:34.826Z,9.25
2022-12-23T11:45:01.607Z,9.23
2022-12-23T11:47:39.500Z,9.18
2022-12-23T11:50:36.242Z,9.23
2022-12-23T11:53:24.370Z,9.05
2022-12-23T11:56:05.412Z,8.95
2022-12-23T11:58:47.424Z,8.86
2022-12-23T12:01:20.449Z,8.84
2022-12-23T12:03:53.939Z,8.78
2022-12-23T12:06:22.403Z,8.81
2022-12-23T12:08:54.187Z,8.94
2022-12-23T12:11:43.481Z,8.90
2022-12-23T12:14:26.739Z,8.88
2022-12-23T12:17:55.208Z,8.85
2022-12-23T12:20:53.138Z,8.91
2022-12-23T12:23:30.005Z,8.88
2022-12-23T12:26:02.979Z,8.96
2022-12-23T12:28:47.048Z,8.90
2022-12-23T12:31:37.352Z,9.03
2022-12-23T12:34:53.480Z,8.89
2022-12-23T12:40:30.682Z,8.89
2022-12-23T12:46:30.756Z,8.90
2022-12-23T12:49:09.102Z,8.95
2022-12-23T12:52:26.595Z,9.08
2022-12-23T12:55:07.168Z,9.14
2022-12-23T12:57:36.561Z,9.28
2022-12-23T13:00:06.944Z,9.25
2022-12-23T13:03:12.695Z,9.24
2022-12-23T13:06:13.503Z,9.26
2022-12-23T13:09:09.363Z,9.11
2022-12-23T13:11:54.684Z,9.19
2022-12-23T13:15:02.829Z,9.07
2022-12-23T13:17:38.958Z,9.11
2022-12-23T13:20:35.038Z,9.10
2022-12-23T13:23:41.582Z,9.13
2022-12-23T13:26:10.190Z,9.03
2022-12-23T13:29:11.330Z,9.03
2022-12-23T13:32:39.229Z,8.85
2022-12-23T13:35:46.881Z,8.76
2022-12-23T13:38:56.069Z,8.65
2022-12-23T13:41:40.024Z,8.59
2022-12-23T13:44:10.781Z,8.59
2022-12-23T13:46:57.620Z,8.58
2022-12-23T13:58:15.015Z,9.05
2022-12-23T14:00:42.471Z,9.02
2022-12-23T14:03:19.095Z,8.97
2022-12-23T14:05:50.646Z,8.85
2022-12-23T14:08:34.267Z,8.77
2022-12-23T14:11:21.915Z,8.92
2022-12-23T14:13:59.570Z,8.88
2022-12-23T14:16:49.268Z,8.78
2022-12-23T14:19:47.347Z,8.67
2022-12-23T14:22:48.432Z,8.66
2022-12-23T14:25:40.706Z,8.66
2022-12-23T14:28:52.384Z,8.58
2022-12-23T14:31:32.039Z,8.63
2022-12-23T14:34:07.310Z,8.71
2022-12-23T14:36:34.080Z,8.68
2022-12-23T14:39:12.342Z,8.63
2022-12-23T14:41:49.984Z,8.50
2022-12-23T14:44:39.515Z,8.32
2022-12-23T14:47:30.812Z,8.28
2022-12-23T14:50:35.615Z,8.18
2022-12-23T14:53:23.855Z,8.19
2022-12-23T14:55:52.151Z,8.17
2022-12-23T14:58:30.345Z,8.14
2022-12-23T15:01:08.496Z,8.15
2022-12-23T15:03:42.267Z,8.06
2022-12-23T15:06:15.137Z,8.05
2022-12-23T15:08:43.632Z,8.02
2022-12-23T15:11:20.978Z,8.01
2022-12-23T15:13:49.173Z,7.97
2022-12-23T15:16:17.813Z,7.96
2022-12-23T15:19:21.513Z,7.96
2022-12-23T15:21:55.650Z,7.94
2022-12-23T15:24:26.976Z,7.97
2022-12-23T15:27:24.697Z,7.98
2022-12-23T15:29:46.024Z,8.03
2022-12-23T15:32:12.759Z,8.05
2022-12-23T15:34:39.480Z,8.00
2022-12-23T15:37:11.842Z,7.95
2022-12-23T15:39:41.959Z,7.90
2022-12-23T15:42:21.206Z,7.84
2022-12-23T15:44:47.770Z,7.92
2022-12-23T15:47:36.145Z,7.95
2022-12-23T15:50:13.104Z,7.92
2022-12-23T15:52:41.315Z,7.88
2022-12-23T15:55:15.806Z,7.85
2022-12-23T15:57:49.751Z,7.85
2022-12-23T16:00:22.752Z,7.84
2022-12-23T16:03:01.694Z,7.86
2022-12-23T16:05:39.457Z,7.93
2022-12-23T16:08:13.476Z,7.97
2022-12-23T16:10:41.011Z,7.96
2022-12-23T16:13:19.637Z,7.98
2022-12-23T16:15:47.069Z,7.97
2022-12-23T16:18:32.854Z,7.92
2022-12-23T16:21:02.751Z,7.93
2022-12-23T16:23:30.801Z,8.00
2022-12-23T16:26:00.405Z,8.05
2022-12-23T16:28:34.659Z,8.04
2022-12-23T16:31:01.603Z,8.06
2022-12-23T16:33:59.089Z,7.91
2022-12-23T16:36:33.379Z,7.90
2022-12-23T16:39:12.926Z,7.90
2022-12-23T16:41:39.598Z,7.86
2022-12-23T16:44:06.199Z,7.84
2022-12-23T16:46:38.620Z,7.83
2022-12-23T16:49:08.376Z,7.80
2022-12-23T16:51:36.351Z,7.79
2022-12-23T16:54:02.947Z,7.85
2022-12-23T16:56:37.563Z,7.80
2022-12-23T16:59:04.936Z,7.78
2022-12-23T17:01:34.909Z,7.81
2022-12-23T17:04:01.800Z,7.84
2022-12-23T17:06:28.593Z,7.83
2022-12-23T17:08:56.708Z,7.74
2022-12-23T17:11:41.361Z,7.69
2022-12-23T17:14:15.830Z,7.70
2022-12-23T17:16:42.942Z,7.68
2022-12-23T17:19:09.578Z,7.67
2022-12-23T17:21:37.664Z,7.70
2022-12-23T17:24:22.129Z,7.64
2022-12-23T17:26:48.955Z,7.63
2022-12-23T17:29:15.913Z,7.63
2022-12-23T17:31:43.259Z,7.63
2022-12-23T17:34:16.147Z,7.62
2022-12-23T17:36:49.304Z,7.63
2022-12-23T17:39:16.788Z,7.60
2022-12-23T17:41:43.431Z,7.65
2022-12-23T17:44:13.851Z,7.63
2022-12-23T17:46:40.464Z,7.62
2022-12-23T17:49:07.023Z,7.59
2022-12-23T17:51:33.771Z,7.60
2022-12-23T17:54:02.242Z,7.60
2022-12-23T17:56:29.201Z,7.56
2022-12-23T17:58:55.832Z,7.53
2022-12-23T18:01:26.850Z,7.63
2022-12-23T18:03:55.275Z,7.61
2022-12-23T18:06:23.624Z,7.67
2022-12-23T18:08:50.198Z,7.60
2022-12-23T18:11:31.080Z,7.60
2022-12-23T18:13:57.785Z,7.60
2022-12-23T18:16:24.364Z,7.59
2022-12-23T18:18:51.882Z,7.66
2022-12-23T18:21:25.281Z,7.66
2022-12-23T18:23:54.920Z,7.66
2022-12-23T18:26:21.497Z,7.63
2022-12-23T18:28:48.073Z,7.67
2022-12-23T18:31:21.067Z,7.69
2022-12-23T18:33:47.856Z,7.63
2022-12-23T18:36:32.197Z,7.62
2022-12-23T18:38:58.922Z,7.61
2022-12-23T18:41:26.324Z,7.63
2022-12-23T18:43:53.578Z,7.62
2022-12-23T18:46:20.469Z,7.63
2022-12-23T18:48:47.856Z,7.60
2022-12-23T18:51:19.678Z,7.62
2022-12-23T18:53:47.415Z,7.61
2022-12-23T18:56:15.258Z,7.64
2022-12-23T18:58:42.388Z,7.64
2022-12-23T19:01:13.423Z,7.64
2022-12-23T19:03:40.333Z,7.71
2022-12-23T19:06:08.340Z,7.69
2022-12-23T19:08:36.341Z,7.71
2022-12-23T19:11:13.021Z,7.74
2022-12-23T19:13:40.067Z,7.72
2022-12-23T19:16:07.123Z,7.80
2022-12-23T19:18:33.756Z,7.81
2022-12-23T19:21:04.336Z,7.79
2022-12-23T19:23:30.951Z,7.79
2022-12-23T19:25:57.561Z,7.78
2022-12-23T19:28:24.223Z,7.86
2022-12-23T19:30:50.903Z,7.78
2022-12-23T19:33:17.707Z,7.79
2022-12-23T19:35:44.534Z,7.88
2022-12-23T19:38:12.255Z,7.96
2022-12-23T19:40:39.762Z,8.02
2022-12-23T19:43:06.463Z,8.04
2022-12-23T19:45:33.016Z,8.06
2022-12-23T19:47:59.515Z,8.09
2022-12-23T19:50:27.274Z,8.22
2022-12-23T19:52:54.796Z,8.29
2022-12-23T19:55:21.505Z,8.35
2022-12-23T19:57:48.085Z,8.46
2022-12-23T20:00:15.986Z,8.65
2022-12-23T20:02:43.634Z,8.74
2022-12-23T20:05:10.289Z,8.75
2022-12-23T20:07:37.230Z,8.89
2022-12-23T20:10:05.263Z,8.93
2022-12-23T20:12:31.901Z,9.00
2022-12-23T20:14:58.484Z,9.15
2022-12-23T20:17:25.141Z,9.06
2022-12-23T20:19:51.799Z,9.26
2022-12-23T20:22:18.397Z,9.36
2022-12-23T20:24:45.187Z,9.40
2022-12-23T20:27:14.822Z,9.49
2022-12-23T20:29:42.429Z,9.47
2022-12-23T20:32:09.112Z,9.71
2022-12-23T20:34:39.770Z,9.89
2022-12-23T20:37:07.219Z,9.94
2022-12-23T20:39:34.230Z,9.97
2022-12-23T20:42:00.903Z,9.99
2022-12-23T20:44:36.521Z,10.20
2022-12-23T20:47:07.563Z,10.12
2022-12-23T20:49:34.242Z,9.97
2022-12-23T20:52:01.016Z,9.92
2022-12-23T20:54:32.694Z,10.04
2022-12-23T20:57:01.155Z,10.04
2022-12-23T20:59:27.775Z,10.14
2022-12-23T21:01:54.858Z,10.05
2022-12-23T21:04:22.497Z,9.97
2022-12-23T21:06:49.209Z,9.94
2022-12-23T21:09:16.174Z,9.98
2022-12-23T21:11:46.076Z,9.99
2022-12-23T21:14:14.407Z,10.00
2022-12-23T21:16:41.874Z,10.05
2022-12-23T21:19:13.536Z,10.14
2022-12-23T21:21:40.126Z,10.13
2022-12-23T21:24:06.899Z,10.09
2022-12-23T21:26:34.830Z,10.03
2022-12-23T21:29:04.616Z,9.95
2022-12-23T21:31:33.437Z,9.80
2022-12-23T21:34:00.417Z,9.81
2022-12-23T21:36:31.119Z,9.95
2022-12-23T21:38:59.197Z,10.07
2022-12-23T21:41:28.466Z,10.17
2022-12-23T21:43:59.595Z,10.11
2022-12-23T21:46:28.188Z,10.04
2022-12-23T21:48:56.494Z,10.18
2022-12-23T21:51:27.917Z,10.24
2022-12-23T21:53:58.958Z,10.25
2022-12-23T21:56:30.907Z,10.44
2022-12-23T21:58:59.746Z,10.46
2022-12-23T22:01:27.622Z,10.44
2022-12-23T22:03:55.471Z,10.59
2022-12-23T22:06:27.216Z,10.74
2022-12-23T22:08:54.586Z,10.55
2022-12-23T22:11:24.792Z,10.30
2022-12-23T22:13:52.070Z,9.68
2022-12-23T22:16:21.046Z,9.30
2022-12-23T22:18:50.334Z,9.12
2022-12-23T22:21:19.495Z,9.00
2022-12-23T22:23:46.726Z,8.99
2022-12-23T22:26:22.153Z,8.87
2022-12-23T22:28:51.901Z,8.74
2022-12-23T22:31:53.170Z,8.72
2022-12-23T22:34:22.129Z,8.62
2022-12-23T22:36:49.725Z,8.56
2022-12-23T22:39:20.953Z,8.51
2022-12-23T22:41:52.099Z,8.57
2022-12-23T22:44:19.522Z,8.54
2022-12-23T22:46:46.364Z,8.50
2022-12-23T22:49:14.612Z,8.36
2022-12-23T22:51:42.488Z,8.38
2022-12-23T22:54:09.442Z,8.25
2022-12-23T22:56:36.437Z,8.20
2022-12-23T22:59:03.109Z,8.13
2022-12-23T23:01:32.328Z,8.11
2022-12-23T23:04:01.330Z,8.01
2022-12-23T23:06:38.558Z,8.00
2022-12-23T23:09:14.037Z,8.05
2022-12-23T23:11:41.037Z,8.03
2022-12-23T23:14:07.639Z,8.02
2022-12-23T23:16:34.326Z,8.14
2022-12-23T23:19:01.780Z,8.11
2022-12-23T23:21:28.486Z,8.07
2022-12-23T23:23:55.176Z,8.04
2022-12-23T23:26:26.665Z,8.08
2022-12-23T23:28:54.332Z,7.97
2022-12-23T23:34:07.486Z,8.04
2022-12-23T23:36:34.190Z,8.12
2022-12-23T23:39:00.831Z,8.08
2022-12-23T23:41:27.516Z,8.05
2022-12-23T23:43:54.121Z,8.09
2022-12-23T23:46:20.808Z,8.11
2022-12-23T23:48:47.600Z,8.10
2022-12-23T23:51:14.209Z,8.08
2022-12-23T23:53:40.869Z,8.20
2022-12-23T23:56:09.031Z,8.17
2022-12-23T23:58:36.850Z,8.30
